Time;durP1;ratioP1;P1;durP2;ratioP2;P2;SDS_P1;SDS_P2;PMS_P1;PMS_P2;Temp;Humidity;BMP_temperature;BMP_pressure;BME280_temperature;BME280_humidity;BME280_pressure;Samples;Min_cycle;Max_cycle;Signal;HPM_P1;HPM_P2
2023/01/31 00:01:04;;;;;;;27.27;15.75;;;;;;;4.96;94.20;98934.25;5035740;28;20049;-93
2023/01/31 00:03:30;;;;;;;31.40;17.60;;;;;;;4.85;94.27;98918.47;5036143;28;20118;-93
2023/01/31 00:05:56;;;;;;;27.33;17.42;;;;;;;4.98;94.10;98928.09;5035888;28;20448;-93
2023/01/31 00:08:22;;;;;;;33.13;17.70;;;;;;;4.95;94.66;98941.31;5037099;28;20133;-94
2023/01/31 00:10:48;;;;;;;29.20;17.30;;;;;;;4.94;94.99;98936.88;5036577;28;20073;-92
2023/01/31 00:13:14;;;;;;;31.02;17.58;;;;;;;4.88;94.88;98926.34;5037273;28;20180;-93
2023/01/31 00:15:40;;;;;;;29.58;17.35;;;;;;;4.87;95.07;98936.03;5035864;28;20064;-92
2023/01/31 00:18:07;;;;;;;30.65;17.40;;;;;;;4.95;95.21;98943.94;5036007;28;20049;-93
2023/01/31 00:20:34;;;;;;;32.92;18.23;;;;;;;4.97;94.63;98944.81;5035027;28;20399;-92
2023/01/31 00:22:59;;;;;;;31.40;17.27;;;;;;;4.96;94.80;98939.53;5035989;28;20044;-93
2023/01/31 00:25:25;;;;;;;28.55;17.60;;;;;;;4.86;94.74;98936.06;5035892;28;20037;-91
2023/01/31 00:27:51;;;;;;;32.08;17.85;;;;;;;4.80;95.20;98922.88;5035850;28;20038;-92
2023/01/31 00:30:17;;;;;;;26.90;17.02;;;;;;;4.88;95.00;98940.44;5035236;28;20046;-93
2023/01/31 00:32:43;;;;;;;33.85;17.83;;;;;;;4.89;94.90;98929.00;5035696;28;20034;-93
2023/01/31 00:35:10;;;;;;;32.30;17.50;;;;;;;5.04;94.68;98959.72;5035479;28;20045;-93
2023/01/31 00:37:36;;;;;;;30.20;17.10;;;;;;;5.04;94.66;98959.72;5035549;28;20041;-92
2023/01/31 00:40:03;;;;;;;29.05;17.02;;;;;;;4.92;94.96;98957.09;5035532;28;20068;-93
2023/01/31 00:42:29;;;;;;;29.08;17.48;;;;;;;4.88;95.24;98952.72;5035559;28;20042;-95
2023/01/31 00:44:55;;;;;;;26.02;15.63;;;;;;;4.97;95.39;98972.94;5035693;28;20095;-93
2023/01/31 00:47:20;;;;;;;30.67;17.27;;;;;;;4.80;95.17;98950.09;5035773;28;20048;-93
2023/01/31 00:49:46;;;;;;;28.85;17.25;;;;;;;4.89;95.34;98951.84;5035571;28;20541;-94
2023/01/31 00:52:14;;;;;;;29.30;17.50;;;;;;;4.82;95.78;98948.34;5035854;28;20775;-94
2023/01/31 00:54:41;;;;;;;31.17;18.05;;;;;;;4.78;95.76;98935.19;5035390;28;20046;-91
2023/01/31 00:57:07;;;;;;;28.70;16.38;;;;;;;4.82;95.97;98950.09;5034098;28;20105;-94
2023/01/31 00:59:33;;;;;;;33.35;17.20;;;;;;;4.68;97.02;98936.94;5035259;28;20072;-94
2023/01/31 01:01:59;;;;;;;29.85;16.25;;;;;;;4.92;96.65;98970.28;5034846;28;20042;-93
2023/01/31 01:04:25;;;;;;;32.60;17.77;;;;;;;4.75;96.23;98928.16;5035548;28;20501;-94
2023/01/31 01:06:51;;;;;;;27.48;16.85;;;;;;;4.74;98.40;98953.59;5035571;28;20061;-93
2023/01/31 01:09:21;;;;;;;28.52;16.75;;;;;;;4.60;98.96;98944.84;5036299;28;20048;-94
2023/01/31 01:11:48;;;;;;;31.30;17.30;;;;;;;4.65;98.29;98945.72;5035008;28;20034;-91
2023/01/31 01:14:14;;;;;;;31.02;17.67;;;;;;;4.61;98.84;98959.75;5035009;28;20577;-92
2023/01/31 01:16:41;;;;;;;32.97;18.35;;;;;;;4.50;98.42;98929.91;5035141;28;20041;-92
2023/01/31 01:19:09;;;;;;;30.52;16.58;;;;;;;4.51;99.22;98948.38;5031338;28;20095;-92
2023/01/31 01:21:36;;;;;;;28.92;16.17;;;;;;;4.40;99.71;98938.69;5034851;28;20861;-92
2023/01/31 01:24:02;;;;;;;32.92;17.75;;;;;;;4.35;100.00;98936.06;5034760;28;20037;-92
2023/01/31 01:26:32;;;;;;;28.20;16.30;;;;;;;4.23;100.00;98936.03;5035101;28;20046;-93
2023/01/31 01:28:59;;;;;;;26.88;15.88;;;;;;;4.14;100.00;98941.28;5035010;28;20042;-93
2023/01/31 01:31:29;;;;;;;29.00;15.32;;;;;;;4.02;100.00;98944.81;5033883;28;20046;-92
2023/01/31 01:33:57;;;;;;;24.92;14.35;;;;;;;3.96;100.00;98943.03;5033683;28;20053;-93
2023/01/31 01:36:24;;;;;;;25.35;13.95;;;;;;;4.04;100.00;98951.81;5033670;28;20033;-93
2023/01/31 01:38:51;;;;;;;23.88;13.77;;;;;;;3.98;100.00;98964.94;5036696;28;20038;-91
2023/01/31 01:41:18;;;;;;;22.83;12.07;;;;;;;3.89;100.00;98955.28;5035043;28;20053;-94
2023/01/31 01:43:48;;;;;;;25.00;12.85;;;;;;;3.88;100.00;98955.28;5034622;28;20050;-92
2023/01/31 01:46:17;;;;;;;25.05;14.40;;;;;;;3.82;100.00;98955.28;5033739;28;20059;-91
2023/01/31 01:48:47;;;;;;;25.52;13.70;;;;;;;3.66;100.00;98944.69;5034699;28;20048;-92
2023/01/31 01:51:15;;;;;;;25.67;14.13;;;;;;;3.62;100.00;98968.34;5034488;28;20048;-93
2023/01/31 01:53:43;;;;;;;26.48;14.20;;;;;;;3.34;100.00;98947.22;5035221;28;20041;-93
2023/01/31 01:56:14;;;;;;;28.70;14.43;;;;;;;3.36;100.00;98960.34;5036321;28;20095;-92
2023/01/31 01:58:47;;;;;;;29.30;15.57;;;;;;;3.24;100.00;98963.78;5034378;28;20104;-91
2023/01/31 02:01:15;;;;;;;29.10;14.60;;;;;;;3.10;100.00;98942.69;5033747;28;20503;-93
2023/01/31 02:03:43;;;;;;;25.80;13.68;;;;;;;3.19;100.00;98966.41;5033975;28;20124;-93
2023/01/31 02:06:09;;;;;;;25.80;13.02;;;;;;;2.96;100.00;98955.75;5033724;28;20042;-93
2023/01/31 02:08:39;;;;;;;29.50;13.18;;;;;;;3.01;100.00;98985.53;5034686;28;20057;-93
2023/01/31 02:11:07;;;;;;;;;;;;;;;3.08;100.00;98991.75;5035864;28;20033;-94
2023/01/31 02:13:34;;;;;;;23.83;11.88;;;;;;;3.01;100.00;98984.66;5034913;28;19901;-93
2023/01/31 02:16:01;;;;;;;23.58;13.30;;;;;;;2.81;100.00;98969.66;5033519;28;20403;-91
2023/01/31 02:18:27;;;;;;;23.88;13.48;;;;;;;2.81;100.00;98987.16;5032319;28;20045;-91
2023/01/31 02:21:18;;;;;;;25.42;11.70;;;;;;;2.89;100.00;98995.97;5033461;28;20038;-93
2023/01/31 02:24:21;;;;;;;27.75;13.93;;;;;;;2.98;100.00;98993.41;5033545;28;20033;-91
2023/01/31 02:27:13;;;;;;;26.23;12.88;;;;;;;3.03;100.00;98989.06;5030975;28;20119;-91
2023/01/31 02:30:06;;;;;;;24.95;12.25;;;;;;;3.05;100.00;98979.44;5038816;28;20503;-92
2023/01/31 02:32:47;;;;;;;24.15;12.32;;;;;;;2.97;100.00;98978.53;5024702;28;20064;-93
2023/01/31 02:35:24;;;;;;;24.30;12.23;;;;;;;2.96;100.00;99000.41;5038141;28;20050;-92
2023/01/31 02:38:02;;;;;;;25.33;13.20;;;;;;;2.86;100.00;98998.56;5040075;28;20073;-93
2023/01/31 02:40:36;;;;;;;22.27;12.43;;;;;;;2.90;100.00;98991.59;5035628;28;20045;-93
2023/01/31 02:43:12;;;;;;;23.77;11.32;;;;;;;3.06;100.00;99011.88;5036855;28;20034;-92
2023/01/31 02:45:46;;;;;;;22.58;11.60;;;;;;;2.99;100.00;99004.78;5036452;28;20301;-92
2023/01/31 02:48:22;;;;;;;24.40;12.30;;;;;;;2.96;100.00;98995.16;5069932;28;20045;-92
2023/01/31 02:50:58;;;;;;;26.67;12.90;;;;;;;3.08;100.00;99021.50;5070289;28;20081;-91
2023/01/31 02:53:30;;;;;;;23.33;13.07;;;;;;;3.00;100.00;99003.94;5037453;28;20040;-92
2023/01/31 02:59:05;;;;;;;25.88;13.55;;;;;;;3.08;100.00;99018.00;5092972;27;20378;-91
2023/01/31 03:01:34;;;;;;;28.35;14.10;;;;;;;3.23;100.00;99002.34;5090927;28;20053;-91
2023/01/31 03:04:03;;;;;;;24.90;13.90;;;;;;;3.50;100.00;98998.97;5092193;28;20047;-92
2023/01/31 03:07:06;;;;;;;25.52;13.35;;;;;;;3.67;100.00;99035.00;5088475;28;20040;-93
2023/01/31 03:09:53;;;;;;;29.75;12.88;;;;;;;3.73;100.00;99021.88;5091795;28;20485;-91
2023/01/31 03:12:35;;;;;;;25.42;12.43;;;;;;;3.94;100.00;99007.91;5091665;28;20048;-93
2023/01/31 03:15:23;;;;;;;26.45;14.57;;;;;;;4.32;100.00;99020.31;5092736;28;20129;-90
2023/01/31 03:17:58;;;;;;;29.60;13.13;;;;;;;4.28;100.00;99035.22;5091290;28;20036;-92
2023/01/31 03:20:34;;;;;;;29.25;13.85;;;;;;;4.22;100.00;99018.53;5090390;28;20064;-93
2023/01/31 03:23:07;;;;;;;27.63;11.90;;;;;;;4.27;100.00;99027.31;5091136;28;20040;-93
2023/01/31 03:25:35;;;;;;;26.55;12.15;;;;;;;4.09;100.00;99020.25;5089478;28;20040;-92
2023/01/31 03:28:08;;;;;;;23.73;11.88;;;;;;;4.01;100.00;99021.97;5091706;28;20424;-92
2023/01/31 03:30:40;;;;;;;28.95;13.65;;;;;;;3.82;100.00;99018.41;5090381;28;20048;-91
2023/01/31 03:33:12;;;;;;;26.40;13.40;;;;;;;3.84;100.00;99030.69;5090972;28;20064;-93
2023/01/31 03:35:42;;;;;;;28.98;14.90;;;;;;;3.97;100.00;99023.72;5092710;28;20056;-92
2023/01/31 03:38:16;;;;;;;24.60;12.25;;;;;;;4.17;100.00;99029.03;5091973;28;20042;-92
2023/01/31 03:40:47;;;;;;;27.73;14.52;;;;;;;4.31;100.00;99051.00;5092810;28;20036;-93
2023/01/31 03:43:19;;;;;;;25.15;13.88;;;;;;;4.23;100.00;99047.50;5091317;28;20044;-91
2023/01/31 03:45:51;;;;;;;26.10;13.43;;;;;;;3.96;100.00;99018.44;5091511;28;20052;-92
2023/01/31 03:48:21;;;;;;;23.00;11.95;;;;;;;3.97;100.00;99044.78;5091781;28;20131;-92
2023/01/31 03:50:51;;;;;;;29.13;13.20;;;;;;;3.98;100.00;99043.03;5092393;28;20142;-92
2023/01/31 03:53:21;;;;;;;26.48;12.98;;;;;;;4.04;100.00;99053.56;5092436;28;20040;-93
2023/01/31 03:55:52;;;;;;;26.20;13.23;;;;;;;4.08;99.87;99057.97;5091603;28;20485;-92
2023/01/31 03:58:20;;;;;;;25.95;12.55;;;;;;;4.14;99.19;99041.31;5091374;28;20035;-92
2023/01/31 04:00:50;;;;;;;22.13;11.33;;;;;;;4.10;99.20;99032.53;5090076;28;20044;-92
2023/01/31 04:03:25;;;;;;;20.58;9.82;;;;;;;3.86;98.93;99010.53;5092266;28;20047;-92
2023/01/31 04:05:51;;;;;;;24.80;10.10;;;;;;;4.06;98.46;99028.13;5091764;28;20048;-93
2023/01/31 04:08:17;;;;;;;23.02;10.13;;;;;;;4.17;97.92;99042.22;5089660;28;20484;-94
2023/01/31 04:10:43;;;;;;;24.13;10.63;;;;;;;4.19;97.68;99050.13;5079767;28;20079;-92
2023/01/31 04:13:09;;;;;;;21.33;10.40;;;;;;;4.10;98.50;99061.50;5079004;28;20622;-91
2023/01/31 04:15:35;;;;;;;24.33;11.13;;;;;;;3.75;97.85;99028.00;5077917;28;20302;-91
2023/01/31 04:18:02;;;;;;;25.80;10.70;;;;;;;3.59;97.84;99041.97;5078492;28;20047;-92
2023/01/31 04:20:28;;;;;;;23.88;10.02;;;;;;;3.25;99.26;99041.75;5078115;28;20044;-93
2023/01/31 04:22:54;;;;;;;20.92;9.57;;;;;;;2.99;99.87;99026.72;5077669;28;20044;-92
2023/01/31 04:25:20;;;;;;;23.60;11.35;;;;;;;2.79;100.00;99030.91;5078741;28;20037;-92
2023/01/31 04:27:46;;;;;;;20.98;9.48;;;;;;;2.65;100.00;99055.31;5077640;28;20517;-92
2023/01/31 04:30:12;;;;;;;20.67;10.45;;;;;;;2.53;100.00;99062.19;5076545;28;20045;-91
2023/01/31 04:32:38;;;;;;;24.80;10.50;;;;;;;2.28;100.00;99037.41;5076215;28;20040;-93
2023/01/31 04:35:06;;;;;;;17.80;8.50;;;;;;;2.51;100.00;99046.41;5077334;28;20048;-92
2023/01/31 04:37:32;;;;;;;24.10;8.75;;;;;;;2.98;100.00;99027.56;5078397;28;20124;-92
2023/01/31 04:39:58;;;;;;;19.00;9.27;;;;;;;3.67;100.00;99056.03;5077767;28;20036;-92
2023/01/31 04:42:24;;;;;;;19.65;9.00;;;;;;;3.60;100.00;99047.25;5075225;28;20056;-93
2023/01/31 04:44:50;;;;;;;24.05;12.75;;;;;;;3.21;98.55;99035.63;5079428;28;20041;-92
2023/01/31 04:47:16;;;;;;;25.27;12.63;;;;;;;2.98;99.28;99063.47;5075537;28;20090;-93
2023/01/31 04:49:43;;;;;;;21.23;11.90;;;;;;;2.67;100.00;99071.09;5075847;28;20044;-93
2023/01/31 04:52:10;;;;;;;31.08;12.50;;;;;;;2.38;100.00;99084.78;5076277;28;20044;-93
2023/01/31 04:54:36;;;;;;;25.27;12.10;;;;;;;2.11;100.00;99064.38;5076690;28;20044;-91
2023/01/31 04:57:02;;;;;;;24.67;12.40;;;;;;;1.84;100.00;99060.56;5075944;28;20049;-91
2023/01/31 04:59:28;;;;;;;29.27;11.50;;;;;;;1.68;100.00;99061.22;5075957;28;20130;-93
2023/01/31 05:01:54;;;;;;;23.17;11.43;;;;;;;1.52;100.00;99059.22;5075703;28;20190;-94
2023/01/31 05:04:21;;;;;;;23.48;10.77;;;;;;;1.36;100.00;99051.16;5076854;28;20074;-92
2023/01/31 05:06:47;;;;;;;20.35;10.50;;;;;;;1.30;100.00;99063.28;5077104;28;20401;-91
2023/01/31 05:09:14;;;;;;;22.08;9.38;;;;;;;1.23;100.00;99047.47;5076916;28;20052;-93
2023/01/31 05:11:40;;;;;;;20.90;9.18;;;;;;;1.17;100.00;99047.41;5076383;28;20047;-94
2023/01/31 05:14:06;;;;;;;22.15;9.45;;;;;;;1.21;100.00;99054.47;5076720;28;20048;-91
2023/01/31 05:16:32;;;;;;;19.77;9.00;;;;;;;1.21;100.00;99058.81;5073675;28;20482;-93
2023/01/31 05:18:57;;;;;;;17.08;9.20;;;;;;;1.14;100.00;99059.56;5075766;28;20040;-93
2023/01/31 05:21:23;;;;;;;20.77;8.93;;;;;;;1.04;100.00;99055.91;5075396;28;20134;-92
2023/01/31 05:23:49;;;;;;;19.10;9.05;;;;;;;1.11;100.00;99080.50;5073445;28;20135;-92
2023/01/31 05:26:17;;;;;;;17.45;8.85;;;;;;;0.93;100.00;99047.94;5076970;28;20532;-93
2023/01/31 05:28:42;;;;;;;17.65;9.07;;;;;;;1.06;100.00;99072.53;5076501;28;20072;-93
2023/01/31 05:31:12;;;;;;;19.92;9.15;;;;;;;0.88;100.00;99060.03;5075498;28;20037;-93
2023/01/31 05:33:38;;;;;;;17.55;9.27;;;;;;;0.87;100.00;99076.63;5073423;28;20043;-94
2023/01/31 05:36:04;;;;;;;21.70;9.38;;;;;;;0.91;100.00;99081.06;5074852;28;20040;-92
2023/01/31 05:38:30;;;;;;;19.90;8.25;;;;;;;0.93;100.00;99079.34;5075447;28;20047;-92
2023/01/31 05:40:56;;;;;;;19.33;8.88;;;;;;;1.00;100.00;99096.91;5075651;28;20051;-92
2023/01/31 05:43:24;;;;;;;18.90;9.48;;;;;;;0.80;100.00;99056.41;5075380;28;20040;-92
2023/01/31 05:45:50;;;;;;;20.67;9.27;;;;;;;1.07;100.00;99086.53;5075302;28;20075;-92
2023/01/31 05:48:15;;;;;;;17.05;7.72;;;;;;;1.30;100.00;99072.06;5075588;28;20052;-94
2023/01/31 05:50:41;;;;;;;18.08;7.93;;;;;;;1.58;100.00;99090.78;5075513;28;20440;-92
2023/01/31 05:53:08;;;;;;;18.67;8.18;;;;;;;1.49;100.00;99073.19;5074269;28;20040;-91
2023/01/31 05:55:34;;;;;;;19.45;9.10;;;;;;;1.66;100.00;99088.28;5077230;28;20044;-91
2023/01/31 05:57:59;;;;;;;19.10;8.90;;;;;;;1.83;100.00;99086.75;5075960;28;20051;-92
2023/01/31 06:00:27;;;;;;;17.08;7.78;;;;;;;1.73;100.00;99077.88;5074099;28;20071;-92
2023/01/31 06:02:56;;;;;;;15.05;7.15;;;;;;;1.90;100.00;99116.56;5076045;28;20117;-91
2023/01/31 06:05:22;;;;;;;;;;;;;;;1.96;100.00;99116.66;5074855;28;20032;-92
2023/01/31 06:07:48;;;;;;;17.00;7.53;;;;;;;1.82;100.00;99117.34;5074954;28;19966;-93
2023/01/31 06:10:14;;;;;;;15.75;8.75;;;;;;;1.69;100.00;99094.41;5075597;28;20051;-95
2023/01/31 06:12:40;;;;;;;19.27;7.07;;;;;;;1.77;100.00;99120.75;5075088;28;20440;-92
2023/01/31 06:15:07;;;;;;;17.83;8.77;;;;;;;1.57;100.00;99113.50;5074153;28;20506;-93
2023/01/31 06:17:34;;;;;;;19.63;8.55;;;;;;;1.59;100.00;99100.41;5075280;28;20143;-93
2023/01/31 06:20:00;;;;;;;18.60;8.55;;;;;;;1.91;100.00;99131.41;5075554;28;20104;-92
2023/01/31 06:22:26;;;;;;;17.90;8.00;;;;;;;1.74;100.00;99124.22;5075544;28;20059;-92
2023/01/31 06:24:52;;;;;;;18.67;8.55;;;;;;;1.64;100.00;99127.56;5076193;28;20044;-92
2023/01/31 06:27:18;;;;;;;25.40;9.50;;;;;;;1.58;100.00;99140.56;5073923;28;20397;-92
2023/01/31 06:29:44;;;;;;;19.35;8.40;;;;;;;1.48;100.00;99122.97;5075016;28;20048;-91
2023/01/31 06:32:10;;;;;;;18.85;8.75;;;;;;;1.66;100.00;99143.31;5074965;28;20075;-93
2023/01/31 06:34:37;;;;;;;21.85;9.15;;;;;;;1.74;100.00;99139.09;5074753;28;20131;-92
2023/01/31 06:37:03;;;;;;;20.27;9.15;;;;;;;2.04;100.00;99146.50;5074716;28;20493;-89
2023/01/31 06:39:29;;;;;;;23.63;9.43;;;;;;;2.86;98.15;99153.53;5077125;28;20124;-92
2023/01/31 06:41:54;;;;;;;23.23;10.18;;;;;;;2.89;96.09;99137.81;5076455;28;20041;-92
2023/01/31 06:44:20;;;;;;;21.95;9.65;;;;;;;3.36;94.56;99166.28;5076433;28;20041;-91
2023/01/31 06:46:46;;;;;;;25.17;9.77;;;;;;;3.44;91.95;99145.28;5075966;28;20040;-93
2023/01/31 06:49:12;;;;;;;19.98;9.30;;;;;;;3.47;91.19;99158.44;5076296;28;20036;-92
2023/01/31 06:51:40;;;;;;;21.05;8.93;;;;;;;3.50;89.93;99154.09;5076873;28;20041;-93
2023/01/31 06:54:05;;;;;;;16.83;8.25;;;;;;;3.25;90.53;99168.81;5076534;28;20378;-91
2023/01/31 06:56:31;;;;;;;15.95;8.35;;;;;;;2.74;92.61;99143.78;5076131;28;20046;-92
2023/01/31 06:58:57;;;;;;;17.85;8.27;;;;;;;2.53;94.92;99170.69;5055695;28;20019;-92
2023/01/31 07:01:25;;;;;;;25.88;10.13;;;;;;;2.63;96.86;99198.81;5053662;28;20037;-92
2023/01/31 07:03:50;;;;;;;17.65;8.13;;;;;;;2.41;96.33;99181.06;5054528;28;20041;-92
2023/01/31 07:06:19;;;;;;;21.08;9.35;;;;;;;2.28;98.37;99179.13;5055231;28;20079;-93
2023/01/31 07:08:46;;;;;;;21.75;8.95;;;;;;;2.38;98.79;99181.00;5053090;28;20037;-92
2023/01/31 07:11:12;;;;;;;21.10;9.07;;;;;;;2.74;96.62;99209.44;5054532;28;20072;-95
2023/01/31 07:13:38;;;;;;;18.85;9.77;;;;;;;2.71;96.82;99206.78;5056086;28;20048;-91
2023/01/31 07:16:04;;;;;;;19.92;9.43;;;;;;;2.60;97.25;99190.00;5054990;28;20033;-94
2023/01/31 07:18:30;;;;;;;18.17;8.75;;;;;;;2.58;97.46;99184.78;5056137;28;20562;-94
2023/01/31 07:20:56;;;;;;;18.58;9.02;;;;;;;2.67;98.30;99192.75;5056451;28;20069;-93
2023/01/31 07:23:22;;;;;;;19.35;10.20;;;;;;;2.52;97.91;99182.06;5056732;28;20041;-92
2023/01/31 07:25:49;;;;;;;18.85;8.65;;;;;;;2.67;97.96;99191.88;5057447;28;20045;-93
2023/01/31 07:28:15;;;;;;;21.40;8.90;;;;;;;2.91;98.33;99217.50;5057823;28;20045;-93
2023/01/31 07:30:42;;;;;;;20.25;9.07;;;;;;;2.75;98.19;99197.19;5055041;28;20109;-94
2023/01/31 07:33:08;;;;;;;21.73;9.52;;;;;;;2.81;98.31;99185.00;5057987;28;20482;-94
2023/01/31 07:35:34;;;;;;;22.27;10.85;;;;;;;2.99;95.39;99180.81;5059288;28;20045;-93
2023/01/31 07:38:00;;;;;;;31.58;14.85;;;;;;;3.07;96.27;99195.78;5059245;28;20048;-94
2023/01/31 07:40:26;;;;;;;38.50;15.30;;;;;;;3.17;96.53;99211.66;5060029;28;20060;-93
2023/01/31 07:42:58;;;;;;;33.38;14.55;;;;;;;3.28;96.53;99217.88;5059011;28;20045;-94
2023/01/31 07:45:25;;;;;;;33.25;14.35;;;;;;;3.30;96.59;99213.53;5064357;28;20051;-94
2023/01/31 07:47:51;;;;;;;25.83;13.02;;;;;;;3.39;95.42;99221.50;5063662;28;20067;-95
2023/01/31 07:50:19;;;;;;;34.00;12.40;;;;;;;3.30;94.32;99200.38;5063411;28;20049;-93
2023/01/31 07:52:47;;;;;;;29.85;12.73;;;;;;;3.26;94.74;99204.72;5063078;28;20044;-93
2023/01/31 07:55:12;;;;;;;30.33;13.45;;;;;;;3.46;95.31;99241.69;5064626;28;20071;-93
2023/01/31 07:57:39;;;;;;;28.67;14.27;;;;;;;3.45;95.58;99239.06;5071851;28;20490;-95
2023/01/31 08:03:31;;;;;;;34.78;15.35;;;;;;;3.36;95.24;99215.31;5080609;28;20037;-92
2023/01/31 08:05:57;;;;;;;28.58;13.63;;;;;;;3.59;94.53;99237.44;5116403;27;20389;-92
2023/01/31 08:08:22;;;;;;;29.38;15.90;;;;;;;3.66;94.71;99238.34;5113708;28;20050;-92
2023/01/31 08:10:49;;;;;;;35.00;15.95;;;;;;;3.90;94.43;99278.03;5113135;28;20040;-93
2023/01/31 08:13:15;;;;;;;32.00;16.45;;;;;;;3.95;93.69;99251.75;5113428;28;20130;-92
2023/01/31 08:15:41;;;;;;;33.92;16.42;;;;;;;4.04;93.12;99250.94;5112661;28;20064;-93
2023/01/31 08:18:07;;;;;;;41.35;16.95;;;;;;;4.26;92.59;99267.75;5113049;27;20036;-93
2023/01/31 08:20:33;;;;;;;30.73;15.75;;;;;;;4.30;92.12;99256.38;5112625;28;20092;-94
2023/01/31 08:23:00;;;;;;;32.58;15.18;;;;;;;4.46;91.31;99274.00;5113485;28;20489;-94
2023/01/31 08:25:29;;;;;;;25.48;13.50;;;;;;;4.60;89.94;99278.44;5113713;27;20047;-94
2023/01/31 08:27:56;;;;;;;33.17;14.32;;;;;;;4.61;88.50;99259.16;5114162;28;20047;-93
2023/01/31 08:30:22;;;;;;;29.40;14.68;;;;;;;4.77;87.37;99275.91;5113381;28;20105;-94
2023/01/31 08:32:48;;;;;;;29.13;14.70;;;;;;;4.80;87.30;99270.66;5112762;28;20040;-94
2023/01/31 08:35:14;;;;;;;34.10;13.75;;;;;;;4.98;86.07;99297.06;5113721;28;20069;-94
2023/01/31 08:37:40;;;;;;;29.42;13.63;;;;;;;5.13;86.50;99296.25;5112598;28;20713;-94
2023/01/31 08:40:09;;;;;;;31.10;14.80;;;;;;;5.27;86.39;99291.91;5112710;28;20040;-91
2023/01/31 08:42:35;;;;;;;36.63;18.52;;;;;;;5.35;85.30;99287.50;5113064;28;20039;-93
2023/01/31 08:45:01;;;;;;;32.97;19.48;;;;;;;5.41;84.96;99277.88;5112835;28;20093;-92
2023/01/31 08:47:27;;;;;;;36.42;17.33;;;;;;;5.55;84.59;99284.03;5114128;27;20035;-92
2023/01/31 08:49:53;;;;;;;28.52;16.02;;;;;;;5.75;84.24;99292.00;5113960;28;20050;-95
2023/01/31 08:52:19;;;;;;;33.17;15.93;;;;;;;5.91;83.72;99304.31;5115704;28;20040;-94
2023/01/31 08:54:53;;;;;;;31.50;14.38;;;;;;;6.01;83.41;99305.22;5114274;28;20408;-93
2023/01/31 08:57:21;;;;;;;28.00;15.20;;;;;;;6.11;81.96;99309.59;5112866;28;20409;-93
2023/01/31 08:59:46;;;;;;;35.30;16.80;;;;;;;6.08;81.93;99287.63;5112623;28;20044;-93
2023/01/31 09:02:12;;;;;;;38.15;17.13;;;;;;;6.25;81.24;99296.41;5112222;28;20035;-94
2023/01/31 09:04:38;;;;;;;40.60;17.75;;;;;;;6.32;80.51;99292.00;5113709;28;20054;-94
2023/01/31 09:07:04;;;;;;;37.38;16.60;;;;;;;6.51;79.50;99316.63;5114279;28;20105;-93
2023/01/31 09:09:30;;;;;;;31.85;15.77;;;;;;;6.35;79.13;99300.81;5112102;28;20066;-93
2023/01/31 09:11:56;;;;;;;27.85;15.48;;;;;;;6.49;78.67;99313.97;5107250;28;20040;-93
2023/01/31 09:14:24;;;;;;;37.35;18.13;;;;;;;6.55;78.27;99307.81;5113300;28;20484;-94
2023/01/31 09:16:50;;;;;;;31.67;18.35;;;;;;;6.67;78.46;99306.91;5099745;28;20040;-94
2023/01/31 09:19:16;;;;;;;33.08;17.80;;;;;;;6.78;77.35;99308.59;5098861;28;20490;-93
2023/01/31 09:21:42;;;;;;;31.42;16.38;;;;;;;6.92;76.69;99313.00;5098799;28;20052;-94
2023/01/31 09:24:10;;;;;;;33.00;17.15;;;;;;;6.68;75.66;99309.53;5098871;28;20048;-94
2023/01/31 09:26:36;;;;;;;32.35;16.02;;;;;;;6.85;77.05;99337.66;5098904;28;20040;-91
2023/01/31 09:29:02;;;;;;;33.72;16.52;;;;;;;6.95;77.31;99335.00;5098203;28;20135;-93
2023/01/31 09:31:30;;;;;;;33.58;16.63;;;;;;;7.09;77.13;99332.31;5097840;28;20036;-94
2023/01/31 09:33:56;;;;;;;27.67;15.93;;;;;;;7.30;76.73;99354.25;5098748;28;20389;-93
2023/01/31 09:36:23;;;;;;;34.95;16.17;;;;;;;7.36;76.23;99352.47;5099798;28;20040;-93
2023/01/31 09:38:53;;;;;;;30.33;16.08;;;;;;;7.30;75.42;99333.09;5098494;28;20043;-93
2023/01/31 09:41:25;;;;;;;35.67;16.20;;;;;;;7.48;74.83;99343.59;5097569;28;20039;-93
2023/01/31 09:43:56;;;;;;;32.53;15.57;;;;;;;7.60;74.29;99340.00;5098338;28;20546;-94
2023/01/31 09:46:27;;;;;;;34.65;16.52;;;;;;;7.87;74.15;99364.53;5097602;28;20131;-95
2023/01/31 09:48:56;;;;;;;31.60;16.73;;;;;;;7.94;73.72;99356.53;5098002;28;20408;-94
2023/01/31 09:51:22;;;;;;;38.53;16.35;;;;;;;8.08;72.89;99363.50;5098085;28;20048;-94
2023/01/31 09:53:56;;;;;;;30.35;15.25;;;;;;;7.98;70.35;99342.41;5099749;28;20043;-94
2023/01/31 09:56:34;;;;;;;34.35;15.55;;;;;;;8.20;70.54;99359.00;5100914;28;20067;-94
2023/01/31 09:59:11;;;;;;;38.95;16.33;;;;;;;8.40;67.37;99376.50;5099413;28;20131;-94
2023/01/31 10:01:43;;;;;;;15.52;8.60;;;;;;;8.56;59.27;99340.16;5097567;28;20135;-94
2023/01/31 10:04:38;;;;;;;10.80;5.75;;;;;;;8.91;54.50;99360.13;5098657;28;20040;-94
2023/01/31 10:07:09;;;;;;;13.05;6.28;;;;;;;9.35;51.67;99372.00;5088914;28;20040;-92
2023/01/31 10:09:39;;;;;;;11.93;6.38;;;;;;;9.34;51.00;99355.19;5099740;28;20044;-93
2023/01/31 10:12:12;;;;;;;10.68;5.97;;;;;;;9.64;49.99;99380.47;5099495;28;20485;-95
2023/01/31 10:14:46;;;;;;;11.13;6.20;;;;;;;9.58;49.50;99353.97;5099404;28;20058;-93
2023/01/31 10:17:19;;;;;;;12.32;6.60;;;;;;;9.46;49.52;99362.13;5098603;28;20036;-95
2023/01/31 10:19:53;;;;;;;10.32;5.30;;;;;;;9.38;46.59;99338.31;5098781;28;20520;-94
2023/01/31 10:22:27;;;;;;;11.45;5.22;;;;;;;9.63;45.66;99360.13;5096980;28;20040;-93
2023/01/31 10:24:57;;;;;;;8.23;4.32;;;;;;;9.83;44.41;99364.28;5097192;28;20040;-93
2023/01/31 10:27:35;;;;;;;10.50;4.00;;;;;;;9.96;42.80;99346.38;5095951;28;20413;-92
2023/01/31 10:30:05;;;;;;;7.38;4.03;;;;;;;10.04;39.75;99340.03;5091955;28;20047;-92
2023/01/31 10:32:40;;;;;;;7.43;3.70;;;;;;;9.91;40.18;99319.88;5096832;28;20060;-92
2023/01/31 10:35:14;;;;;;;7.00;3.42;;;;;;;9.88;41.12;99317.25;5095862;28;20130;-94
2023/01/31 10:37:45;;;;;;;6.38;3.15;;;;;;;9.91;40.36;99327.84;5099666;28;20044;-94
2023/01/31 10:40:14;;;;;;;5.95;3.00;;;;;;;9.99;40.86;99327.72;5098057;28;20060;-94
2023/01/31 10:42:44;;;;;;;7.10;3.50;;;;;;;9.98;41.00;99312.69;5098886;28;20062;-93
2023/01/31 10:45:16;;;;;;;9.15;3.72;;;;;;;10.06;41.20;99316.97;5098141;28;20039;-93
2023/01/31 10:47:48;;;;;;;6.68;3.50;;;;;;;9.92;40.57;99313.66;5097095;28;20048;-94
2023/01/31 10:50:18;;;;;;;7.90;3.92;;;;;;;9.96;40.46;99315.38;5098554;28;20039;-95
2023/01/31 10:53:07;;;;;;;6.35;3.80;;;;;;;9.84;40.72;99311.09;5097671;28;20072;-93
2023/01/31 10:55:58;;;;;;;10.00;4.07;;;;;;;10.10;40.65;99322.25;5096101;28;20101;-93
2023/01/31 10:58:24;;;;;;;7.40;3.80;;;;;;;9.97;40.96;99308.28;5112521;28;20500;-93
2023/01/31 11:00:50;;;;;;;7.88;3.83;;;;;;;9.80;39.82;99304.13;5095739;28;20044;-95
2023/01/31 11:03:17;;;;;;;6.60;3.40;;;;;;;9.68;38.04;99290.13;5095090;28;20497;-93
2023/01/31 11:05:48;;;;;;;6.00;3.30;;;;;;;9.80;38.53;99304.13;5095384;28;20401;-91
2023/01/31 11:08:25;;;;;;;6.13;3.42;;;;;;;9.81;38.70;99289.91;5095067;28;20043;-94
2023/01/31 11:10:53;;;;;;;6.40;3.10;;;;;;;10.03;36.92;99306.38;5098687;28;20044;-93
2023/01/31 11:13:19;;;;;;;6.72;3.30;;;;;;;9.83;37.44;99266.88;5096420;28;20046;-95
2023/01/31 11:15:47;;;;;;;7.70;3.72;;;;;;;9.97;37.72;99289.66;5096153;28;20540;-93
2023/01/31 11:18:22;;;;;;;5.38;3.08;;;;;;;9.77;37.37;99266.09;5097260;28;20040;-93
2023/01/31 11:20:49;;;;;;;5.43;3.53;;;;;;;9.96;36.22;99290.59;5097380;28;20093;-94
2023/01/31 11:23:26;;;;;;;7.00;3.72;;;;;;;9.93;36.47;99274.69;5097435;28;20048;-94
2023/01/31 11:25:54;;;;;;;8.20;3.78;;;;;;;9.99;35.89;99283.44;5097198;28;20079;-94
2023/01/31 11:28:23;;;;;;;7.05;3.90;;;;;;;9.95;34.67;99268.44;5096524;28;20093;-93
2023/01/31 11:30:50;;;;;;;;;;;;;;;10.12;34.47;99297.38;5096760;28;20040;-93
2023/01/31 11:33:39;;;;;;;6.20;3.30;;;;;;;10.01;34.68;99292.25;5096041;28;19984;-94
2023/01/31 11:36:12;;;;;;;5.20;3.25;;;;;;;9.80;35.15;99268.69;5096535;28;20093;-94
2023/01/31 11:38:38;;;;;;;6.57;4.00;;;;;;;9.75;37.26;99275.84;5096162;28;20493;-94
2023/01/31 11:41:27;;;;;;;8.43;4.63;;;;;;;9.75;37.33;99263.44;5095759;28;20131;-94